Carlson, Washington
Current Conditions -  °F | °C
As of 7:58 AM on Wednesday 26 Nov 2014 (Local Time) from KGRF Reporting Station
Drizzle Drizzle  
Wind Chill: 12°   Ceiling: 3100
Heat Index: 12°   Visibility: 10mi
Dew Point: 12°   Wind: 2mph
Humidity: 99%   Direction: 60°ENE
Pressure: 30.15"   Gusts: NA
Location:  46.6944°N, 122.245°W
Report Text: KGRF 261558Z AUTO 06002KT 10SM DZ FEW024 BKN031 OVC050 12/12 A3015 RMK AO2 SLP214 P0001 T01200118 $
Loading
Personal Weather Stations






























Interactive Weather Map New forecast layout! Learn more

10-Day Weather Forecast

Advertisements
Track Severe Weather on mobile